Time;durP1;ratioP1;P1;durP2;ratioP2;P2;SDS_P1;SDS_P2;PMS_P1;PMS_P2;Temp;Humidity;BMP_temperature;BMP_pressure;BME280_temperature;BME280_humidity;BME280_pressure;Samples;Min_cycle;Max_cycle;Signal;HPM_P1;HPM_P2
2021/01/18 00:00:23;;;;;;;1.45;0.80;;;20.00;38.90;;;;;;4826235;29;20083;-79
2021/01/18 00:02:49;;;;;;;0.70;0.22;;;20.00;38.90;;;;;;4805807;29;20088;-81
2021/01/18 00:05:15;;;;;;;1.73;0.17;;;20.00;39.00;;;;;;4816159;29;20180;-80
2021/01/18 00:07:44;;;;;;;0.22;0.22;;;19.90;39.00;;;;;;4792395;29;20461;-79
2021/01/18 00:10:12;;;;;;;0.10;0.10;;;19.90;39.00;;;;;;4814120;29;20034;-79
2021/01/18 00:12:37;;;;;;;0.38;0.30;;;19.90;39.00;;;;;;4818433;29;20109;-80
2021/01/18 00:15:04;;;;;;;0.40;0.25;;;19.90;39.00;;;;;;4821525;29;20542;-80
2021/01/18 00:17:30;;;;;;;0.10;0.10;;;19.90;39.00;;;;;;4792274;29;20515;-79
2021/01/18 00:19:55;;;;;;;0.03;0.03;;;19.90;39.00;;;;;;4813733;29;20113;-79
2021/01/18 00:22:21;;;;;;;0.00;0.00;;;19.80;39.00;;;;;;4828113;29;20101;-79
2021/01/18 00:24:46;;;;;;;0.13;0.13;;;19.80;39.00;;;;;;4811595;29;20092;-80
2021/01/18 00:27:12;;;;;;;2.55;0.90;;;19.80;39.00;;;;;;4827132;29;20026;-80
2021/01/18 00:29:37;;;;;;;0.08;0.08;;;19.80;39.00;;;;;;4818327;29;20071;-79
2021/01/18 00:32:03;;;;;;;0.00;0.00;;;19.80;39.00;;;;;;4820028;29;20110;-80
2021/01/18 00:34:29;;;;;;;0.25;0.25;;;19.80;39.00;;;;;;4825980;29;20529;-80
2021/01/18 00:36:55;;;;;;;0.00;0.00;;;19.80;39.00;;;;;;4807128;29;20069;-78
2021/01/18 00:39:20;;;;;;;0.10;0.10;;;19.80;39.00;;;;;;4814679;29;20046;-81
2021/01/18 00:41:46;;;;;;;0.30;0.30;;;19.70;39.00;;;;;;4815733;29;20091;-80
2021/01/18 00:44:11;;;;;;;5.22;0.45;;;19.80;39.10;;;;;;4822344;29;20531;-80
2021/01/18 00:46:37;;;;;;;0.00;0.00;;;19.80;39.10;;;;;;4815418;29;20083;-81
2021/01/18 00:49:02;;;;;;;0.10;0.10;;;19.70;39.00;;;;;;4811718;29;20051;-81
2021/01/18 00:51:35;;;;;;;0.40;0.35;;;19.70;39.00;;;;;;4820251;29;20026;-78
2021/01/18 00:54:01;;;;;;;0.00;0.00;;;19.70;39.10;;;;;;4826512;29;20064;-79
2021/01/18 00:56:26;;;;;;;0.30;0.30;;;19.80;39.00;;;;;;4823172;29;20183;-80
2021/01/18 00:58:52;;;;;;;0.25;0.05;;;19.80;39.00;;;;;;4816082;29;20065;-79
2021/01/18 01:01:17;;;;;;;0.30;0.00;;;19.70;39.00;;;;;;4804866;29;20081;-79
2021/01/18 01:03:43;;;;;;;0.38;0.38;;;19.70;39.00;;;;;;4822862;29;20042;-78
2021/01/18 01:06:09;;;;;;;0.00;0.00;;;19.70;39.00;;;;;;4806994;29;20034;-79
2021/01/18 01:08:34;;;;;;;0.20;0.03;;;19.70;39.00;;;;;;4806506;29;20034;-79
2021/01/18 01:11:50;;;;;;;0.03;0.03;;;19.70;39.00;;;;;;4810436;29;20117;-79
2021/01/18 01:14:15;;;;;;;1.13;0.63;;;19.70;39.00;;;;;;4808373;29;20863;-79
2021/01/18 01:16:44;;;;;;;0.55;0.38;;;19.70;39.00;;;;;;4815882;29;20026;-77
2021/01/18 01:19:10;;;;;;;0.75;0.35;;;19.70;39.60;;;;;;4817585;29;20041;-77
2021/01/18 01:21:35;;;;;;;0.50;0.35;;;19.70;39.70;;;;;;4820789;29;20026;-79
2021/01/18 01:24:01;;;;;;;0.25;0.25;;;19.70;39.10;;;;;;4820146;29;20039;-79
2021/01/18 01:26:27;;;;;;;0.38;0.38;;;19.60;39.00;;;;;;4820301;29;20030;-78
2021/01/18 01:28:52;;;;;;;4.20;0.70;;;19.60;39.00;;;;;;4829840;29;20031;-78
2021/01/18 01:31:18;;;;;;;0.28;0.28;;;19.70;39.10;;;;;;4812838;29;20506;-78
2021/01/18 01:33:50;;;;;;;0.65;0.45;;;19.60;39.10;;;;;;4825733;29;20026;-79
2021/01/18 01:36:25;;;;;;;0.28;0.17;;;19.60;39.10;;;;;;4821886;29;20022;-78
2021/01/18 01:38:50;;;;;;;0.57;0.30;;;19.60;39.10;;;;;;4803171;29;20411;-78
2021/01/18 01:41:16;;;;;;;0.32;0.32;;;19.60;39.10;;;;;;4828322;29;20033;-79
2021/01/18 01:43:41;;;;;;;0.28;0.28;;;19.60;39.10;;;;;;4819852;29;20035;-78
2021/01/18 01:46:08;;;;;;;0.28;0.28;;;19.60;39.10;;;;;;4832601;29;20512;-79
2021/01/18 01:48:33;;;;;;;0.40;0.40;;;19.60;39.20;;;;;;4816489;29;20031;-78
2021/01/18 01:50:59;;;;;;;0.38;0.25;;;19.50;39.10;;;;;;4824517;29;20039;-80
2021/01/18 01:53:29;;;;;;;0.10;0.10;;;19.60;39.10;;;;;;4809801;29;20041;-80
2021/01/18 01:55:55;;;;;;;4.25;0.47;;;19.60;39.10;;;;;;4797903;29;20127;-78
2021/01/18 01:58:20;;;;;;;0.00;0.00;;;19.60;39.10;;;;;;4818414;29;20559;-79
2021/01/18 02:00:46;;;;;;;0.80;0.20;;;19.50;39.20;;;;;;4799449;29;20528;-78
2021/01/18 02:03:25;;;;;;;0.10;0.10;;;19.50;39.20;;;;;;4798570;29;20034;-79
2021/01/18 02:05:54;;;;;;;0.20;0.20;;;19.50;39.20;;;;;;4826064;29;20026;-77
2021/01/18 02:08:19;;;;;;;1.45;0.85;;;19.50;39.80;;;;;;4808709;29;20027;-70
2021/01/18 02:10:45;;;;;;;0.30;0.30;;;19.50;39.20;;;;;;4813304;29;20435;-71
2021/01/18 02:13:29;;;;;;;0.30;0.30;;;19.50;39.30;;;;;;4815410;29;20038;-71
2021/01/18 02:16:02;;;;;;;0.38;0.10;;;19.50;39.20;;;;;;4799097;29;20042;-70
2021/01/18 02:18:54;;;;;;;0.17;0.15;;;19.50;39.20;;;;;;4824649;29;20042;-80
2021/01/18 02:21:56;;;;;;;0.00;0.00;;;19.40;39.20;;;;;;4812241;29;20053;-79
2021/01/18 02:27:47;;;;;;;0.40;0.40;;;19.40;39.20;;;;;;4822135;29;20099;-79
2021/01/18 02:30:53;;;;;;;1.55;0.55;;;19.40;39.20;;;;;;4810814;29;20053;-80
2021/01/18 02:33:46;;;;;;;0.38;0.38;;;19.40;39.20;;;;;;4794964;29;20538;-79
2021/01/18 02:36:27;;;;;;;0.20;0.20;;;19.40;39.30;;;;;;4808208;29;20083;-79
2021/01/18 02:39:07;;;;;;;0.65;0.13;;;19.40;39.30;;;;;;4787125;29;20038;-80
2021/01/18 02:41:33;;;;;;;0.28;0.05;;;19.30;39.20;;;;;;4811178;29;20058;-80
2021/01/18 02:44:00;;;;;;;0.40;0.10;;;19.30;39.20;;;;;;4817934;29;20035;-81
2021/01/18 02:46:26;;;;;;;0.57;0.10;;;19.30;39.20;;;;;;4820072;29;20042;-80
2021/01/18 02:48:52;;;;;;;0.00;0.00;;;19.30;39.30;;;;;;4810172;29;20481;-79
2021/01/18 02:51:19;;;;;;;1.15;0.68;;;19.30;39.30;;;;;;4789358;29;20042;-80
2021/01/18 02:53:56;;;;;;;0.10;0.10;;;19.30;39.30;;;;;;4813424;29;20563;-80
2021/01/18 02:56:25;;;;;;;0.00;0.00;;;19.30;39.30;;;;;;4797610;29;20079;-80
2021/01/18 02:58:52;;;;;;;3.40;0.40;;;19.30;39.30;;;;;;4823177;29;20030;-81
2021/01/18 03:01:52;;;;;;;0.10;0.10;;;19.30;39.30;;;;;;4793036;29;20106;-78
2021/01/18 03:04:42;;;;;;;0.63;0.47;;;19.30;39.20;;;;;;4821676;29;20102;-78
2021/01/18 03:07:42;;;;;;;0.60;0.43;;;19.30;39.20;;;;;;4817228;29;20533;-77
2021/01/18 03:10:12;;;;;;;0.10;0.10;;;19.40;39.30;;;;;;4797295;29;20043;-77
2021/01/18 03:12:41;;;;;;;0.50;0.50;;;19.30;39.20;;;;;;4816722;29;20120;-78
2021/01/18 03:15:10;;;;;;;0.00;0.00;;;19.30;39.20;;;;;;4808695;29;20128;-79
2021/01/18 03:17:51;;;;;;;0.10;0.10;;;19.30;39.20;;;;;;4801167;29;20044;-78
2021/01/18 03:20:18;;;;;;;0.20;0.20;;;19.30;39.20;;;;;;4802335;29;20038;-78
2021/01/18 03:26:05;;;;;;;0.00;0.00;;;19.30;39.20;;;;;;4822431;29;20033;-80
2021/01/18 03:28:31;;;;;;;0.65;0.25;;;19.30;39.20;;;;;;4813313;29;20499;-81
2021/01/18 03:30:56;;;;;;;0.08;0.08;;;19.30;39.20;;;;;;4824073;29;20034;-80
2021/01/18 03:33:24;;;;;;;0.30;0.10;;;19.30;39.20;;;;;;4828742;29;20045;-80
2021/01/18 03:35:51;;;;;;;0.32;0.10;;;19.30;39.20;;;;;;4797172;29;20046;-79
2021/01/18 03:38:16;;;;;;;0.95;0.30;;;19.30;39.20;;;;;;4836631;29;20045;-80
2021/01/18 03:40:42;;;;;;;0.00;0.00;;;19.30;39.20;;;;;;4792472;29;20043;-80
2021/01/18 03:43:08;;;;;;;0.65;0.40;;;19.30;39.20;;;;;;4824202;29;20086;-81
2021/01/18 03:45:41;;;;;;;0.82;0.28;;;19.20;39.10;;;;;;4798510;29;20123;-81
2021/01/18 03:48:08;;;;;;;1.23;0.38;;;19.20;39.10;;;;;;4812689;29;20030;-81
2021/01/18 03:50:34;;;;;;;0.00;0.00;;;19.20;39.10;;;;;;4821011;29;20129;-81
2021/01/18 03:53:22;;;;;;;0.20;0.20;;;19.20;39.10;;;;;;4794341;29;20042;-79
2021/01/18 03:55:48;;;;;;;0.30;0.30;;;19.20;39.10;;;;;;4820928;29;20060;-81
2021/01/18 03:58:14;;;;;;;0.45;0.25;;;19.20;39.10;;;;;;4804996;29;20044;-78
2021/01/18 04:00:40;;;;;;;10.50;3.58;;;19.20;39.10;;;;;;4807081;29;20121;-78
2021/01/18 04:03:05;;;;;;;11.02;3.65;;;19.20;39.20;;;;;;4807141;29;20046;-79
2021/01/18 04:05:31;;;;;;;10.75;3.40;;;19.20;39.10;;;;;;4806768;29;20042;-80
2021/01/18 04:07:57;;;;;;;7.75;3.47;;;19.20;39.10;;;;;;4815974;29;20498;-80
2021/01/18 04:10:27;;;;;;;12.25;3.72;;;19.10;39.10;;;;;;4801774;29;20079;-78
2021/01/18 04:12:53;;;;;;;10.15;3.65;;;19.10;39.10;;;;;;4804619;29;20050;-70
2021/01/18 04:15:19;;;;;;;16.42;4.57;;;19.10;39.10;;;;;;4816541;29;20041;-70
2021/01/18 04:17:47;;;;;;;2.20;0.95;;;19.10;39.10;;;;;;4809995;29;20035;-70
2021/01/18 04:20:13;;;;;;;10.02;4.05;;;19.10;39.10;;;;;;4801221;29;20042;-70
2021/01/18 04:23:08;;;;;;;6.95;3.50;;;19.10;39.20;;;;;;4807176;29;20049;-71
2021/01/18 04:25:33;;;;;;;10.15;4.03;;;19.00;39.10;;;;;;4729185;30;20052;-71
2021/01/18 04:28:00;;;;;;;9.88;3.45;;;19.00;39.10;;;;;;4737073;30;20036;-71
2021/01/18 04:30:29;;;;;;;13.52;4.10;;;19.10;39.30;;;;;;4730643;30;20052;-70
2021/01/18 04:32:59;;;;;;;10.57;3.78;;;19.00;39.20;;;;;;4731033;30;20056;-70
2021/01/18 04:35:25;;;;;;;9.38;4.22;;;19.00;39.20;;;;;;4720526;30;20044;-70
2021/01/18 04:37:51;;;;;;;10.25;4.03;;;19.00;39.20;;;;;;4738423;30;20649;-70
2021/01/18 04:40:20;;;;;;;8.27;3.15;;;19.00;39.20;;;;;;4729882;30;20160;-70
2021/01/18 04:42:46;;;;;;;9.77;4.15;;;19.00;39.20;;;;;;4736568;30;20056;-70
2021/01/18 04:45:25;;;;;;;14.73;4.00;;;19.00;39.20;;;;;;4743345;30;20498;-70
2021/01/18 04:48:09;;;;;;;9.18;4.03;;;19.00;39.10;;;;;;4733736;30;20533;-70
2021/01/18 04:50:34;;;;;;;13.45;4.50;;;19.00;39.00;;;;;;4732479;30;20077;-70
2021/01/18 04:53:01;;;;;;;9.00;2.78;;;19.00;39.00;;;;;;4723125;30;20060;-70
2021/01/18 04:55:42;;;;;;;10.18;4.20;;;19.00;39.00;;;;;;4731144;30;20434;-70
2021/01/18 04:58:45;;;;;;;14.77;4.55;;;19.00;39.00;;;;;;4731414;30;20087;-70
2021/01/18 05:01:11;;;;;;;1.17;0.80;;;19.00;39.00;;;;;;4750917;29;20507;-70
2021/01/18 05:03:36;;;;;;;1.77;0.90;;;19.00;39.00;;;;;;4791704;29;20042;-70
2021/01/18 05:06:12;;;;;;;8.68;3.80;;;19.00;39.00;;;;;;4805939;29;20526;-70
2021/01/18 05:08:56;;;;;;;;;;;19.00;38.90;;;;;;4830823;29;20105;-70
2021/01/18 05:11:22;;;;;;;2.47;0.63;;;19.10;38.80;;;;;;4814796;29;19928;-76
2021/01/18 05:13:47;;;;;;;1.98;0.98;;;19.10;38.70;;;;;;4795726;29;20026;-76
2021/01/18 05:16:26;;;;;;;14.20;5.63;;;19.20;38.60;;;;;;4811621;29;20457;-76
2021/01/18 05:18:52;;;;;;;9.38;3.60;;;19.30;38.60;;;;;;4793407;29;20065;-76
2021/01/18 05:22:07;;;;;;;1.65;0.93;;;19.40;38.50;;;;;;4783796;29;20063;-76
2021/01/18 05:24:33;;;;;;;3.25;0.90;;;19.40;38.30;;;;;;4813608;29;20038;-76
2021/01/18 05:27:06;;;;;;;4.38;1.08;;;19.50;38.20;;;;;;4811303;29;20031;-76
2021/01/18 05:29:32;;;;;;;9.50;5.00;;;19.60;38.00;;;;;;4799712;29;20408;-80
2021/01/18 05:31:58;;;;;;;5.30;0.90;;;19.70;37.90;;;;;;4796412;29;20039;-79
2021/01/18 05:34:25;;;;;;;3.92;1.20;;;19.80;37.60;;;;;;4805550;29;20113;-80
2021/01/18 05:36:52;;;;;;;4.13;1.13;;;19.90;37.50;;;;;;4784520;29;20082;-80
2021/01/18 05:39:29;;;;;;;9.77;4.45;;;19.90;37.40;;;;;;4806078;29;20103;-80
2021/01/18 05:41:55;;;;;;;7.20;3.65;;;19.90;37.20;;;;;;4789901;29;20061;-79
2021/01/18 05:44:30;;;;;;;4.72;0.85;;;19.90;37.30;;;;;;4815217;29;20054;-80
2021/01/18 05:47:10;;;;;;;2.08;0.88;;;20.00;37.20;;;;;;4789159;29;20054;-81
2021/01/18 05:49:43;;;;;;;1.77;0.82;;;20.00;37.90;;;;;;4804472;29;20511;-80
2021/01/18 05:52:28;;;;;;;0.73;0.70;;;20.00;37.30;;;;;;4807513;29;20035;-80
2021/01/18 05:55:33;;;;;;;1.45;0.63;;;20.00;37.30;;;;;;4780463;29;20086;-80
2021/01/18 05:58:03;;;;;;;12.05;5.30;;;20.00;37.20;;;;;;4808836;29;20507;-79
2021/01/18 06:00:35;;;;;;;2.80;1.23;;;20.00;37.20;;;;;;4796194;29;20027;-79
2021/01/18 06:03:05;;;;;;;4.18;0.90;;;20.00;37.20;;;;;;4810311;29;20050;-79
2021/01/18 06:05:34;;;;;;;2.38;1.15;;;20.00;37.20;;;;;;4799432;29;20106;-70
2021/01/18 06:08:12;;;;;;;3.28;0.90;;;20.00;37.20;;;;;;4789227;29;20030;-70
2021/01/18 06:10:37;;;;;;;0.90;0.70;;;20.10;37.30;;;;;;4810886;29;20058;-69
2021/01/18 06:13:03;;;;;;;2.33;1.23;;;20.00;37.30;;;;;;4816665;29;20033;-79
2021/01/18 06:15:29;;;;;;;2.15;0.70;;;20.10;37.30;;;;;;4804427;29;20529;-80
2021/01/18 06:17:57;;;;;;;1.60;1.10;;;20.10;37.20;;;;;;4798573;29;20067;-80
2021/01/18 06:20:24;;;;;;;1.42;0.90;;;20.10;37.20;;;;;;4794420;29;20050;-80
2021/01/18 06:22:53;;;;;;;2.65;1.00;;;20.10;37.20;;;;;;4797324;29;20035;-78
2021/01/18 06:25:19;;;;;;;1.77;0.65;;;20.10;37.30;;;;;;4796220;29;20034;-78
2021/01/18 06:27:45;;;;;;;1.00;0.77;;;20.10;37.20;;;;;;4809635;29;20035;-69
2021/01/18 06:30:28;;;;;;;10.65;1.05;;;20.10;37.20;;;;;;4814517;29;20031;-78
2021/01/18 06:32:58;;;;;;;3.50;0.98;;;20.10;37.20;;;;;;4800905;29;20071;-78
2021/01/18 06:35:29;;;;;;;1.88;1.02;;;20.10;37.20;;;;;;4798025;29;20050;-79
2021/01/18 06:38:03;;;;;;;1.75;0.90;;;20.10;37.20;;;;;;4807949;29;20065;-78
2021/01/18 06:40:39;;;;;;;3.80;0.85;;;20.10;37.20;;;;;;4800251;29;20039;-79
2021/01/18 06:43:09;;;;;;;1.05;0.65;;;20.10;37.30;;;;;;4802720;29;20564;-79
2021/01/18 06:45:36;;;;;;;0.80;0.45;;;20.10;37.30;;;;;;4781542;29;20034;-79
2021/01/18 06:48:03;;;;;;;1.40;1.10;;;20.10;37.20;;;;;;4794998;29;20515;-71
2021/01/18 06:50:33;;;;;;;4.47;1.02;;;20.10;37.30;;;;;;4806568;29;20430;-70
2021/01/18 06:53:10;;;;;;;4.07;0.90;;;20.10;37.20;;;;;;4806263;29;20039;-70
2021/01/18 06:55:36;;;;;;;0.90;0.63;;;20.00;37.20;;;;;;4811478;29;20038;-70
2021/01/18 06:58:31;;;;;;;2.25;1.10;;;20.10;37.30;;;;;;4780619;29;20062;-70
2021/01/18 07:00:58;;;;;;;2.00;0.60;;;20.10;37.30;;;;;;4807464;29;20033;-70
2021/01/18 07:03:41;;;;;;;1.58;1.10;;;20.10;37.30;;;;;;4797846;29;20113;-70
2021/01/18 07:06:33;;;;;;;3.25;0.88;;;20.10;37.40;;;;;;4799148;29;20561;-70
2021/01/18 07:09:09;;;;;;;2.50;0.77;;;20.10;37.30;;;;;;4776883;29;20038;-70
2021/01/18 07:11:35;;;;;;;2.85;0.70;;;20.10;37.30;;;;;;4802094;29;20042;-70
2021/01/18 07:14:11;;;;;;;1.48;0.98;;;20.10;37.30;;;;;;4799717;29;20045;-70
2021/01/18 07:16:39;;;;;;;3.38;0.82;;;20.10;37.40;;;;;;4811006;29;20030;-71
2021/01/18 07:19:04;;;;;;;0.88;0.77;;;20.10;37.30;;;;;;4785624;29;20413;-70
2021/01/18 07:21:47;;;;;;;4.13;0.60;;;20.10;37.30;;;;;;4824375;29;20038;-70
2021/01/18 07:24:14;;;;;;;2.45;1.05;;;20.00;37.40;;;;;;4790534;29;20035;-70
2021/01/18 07:26:51;;;;;;;2.47;1.17;;;20.10;37.40;;;;;;4813456;29;20042;-70
2021/01/18 07:29:19;;;;;;;5.05;0.75;;;20.10;37.40;;;;;;4819924;29;20034;-70
2021/01/18 07:32:00;;;;;;;1.45;0.98;;;20.10;37.50;;;;;;4795317;29;20047;-70
2021/01/18 07:34:27;;;;;;;1.25;0.88;;;20.10;37.50;;;;;;4820811;29;20046;-70
2021/01/18 07:36:53;;;;;;;9.13;1.25;;;20.10;37.50;;;;;;4811992;29;20454;-69
2021/01/18 07:39:23;;;;;;;1.98;1.00;;;20.10;37.60;;;;;;4805516;29;20049;-71
2021/01/18 07:41:49;;;;;;;2.17;0.77;;;20.10;37.60;;;;;;4808531;29;20041;-70
2021/01/18 07:44:41;;;;;;;5.40;1.10;;;20.10;37.60;;;;;;4822747;29;20027;-69
2021/01/18 07:47:10;;;;;;;2.72;1.00;;;20.10;37.50;;;;;;4807496;29;20042;-69
2021/01/18 07:49:40;;;;;;;2.28;0.60;;;20.20;37.70;;;;;;4807423;29;20263;-69
2021/01/18 07:52:25;;;;;;;0.40;0.40;;;20.10;37.60;;;;;;4800648;29;20054;-69
2021/01/18 07:54:51;;;;;;;4.10;1.13;;;20.10;37.60;;;;;;4791823;29;20034;-69
2021/01/18 07:57:34;;;;;;;3.20;1.02;;;20.20;37.60;;;;;;4806157;29;20491;-69
2021/01/18 08:00:18;;;;;;;3.08;0.95;;;20.20;37.60;;;;;;4804223;29;20049;-69
2021/01/18 08:02:47;;;;;;;1.55;0.90;;;20.10;37.60;;;;;;4818106;29;20031;-69
2021/01/18 08:05:19;;;;;;;2.65;1.27;;;20.20;37.60;;;;;;4831853;29;20026;-70
2021/01/18 08:08:02;;;;;;;5.53;1.27;;;20.20;37.70;;;;;;4823363;29;20083;-70
2021/01/18 08:11:00;;;;;;;1.63;0.90;;;20.20;37.50;;;;;;4805579;29;20071;-77
2021/01/18 08:13:32;;;;;;;3.97;1.00;;;20.20;37.50;;;;;;4818503;29;20503;-77
2021/01/18 08:16:11;;;;;;;2.28;0.75;;;20.20;37.50;;;;;;4834657;29;20403;-78
2021/01/18 08:18:39;;;;;;;1.85;0.57;;;20.20;37.60;;;;;;4830086;29;20062;-77
2021/01/18 08:21:32;;;;;;;1.75;0.52;;;20.10;37.50;;;;;;4795726;29;20022;-77
2021/01/18 08:23:59;;;;;;;2.92;0.50;;;20.20;37.50;;;;;;4811889;29;20523;-76
2021/01/18 08:26:24;;;;;;;1.65;0.50;;;20.20;37.60;;;;;;4792522;29;20491;-70
2021/01/18 08:28:50;;;;;;;0.40;0.40;;;20.20;37.60;;;;;;4807098;29;20049;-70
2021/01/18 08:31:16;;;;;;;0.85;0.32;;;20.10;37.60;;;;;;4824806;29;20034;-70
2021/01/18 08:33:41;;;;;;;0.80;0.70;;;20.20;37.60;;;;;;4808007;29;20068;-69
2021/01/18 08:36:07;;;;;;;4.15;1.10;;;20.10;37.60;;;;;;4808728;29;20065;-68
2021/01/18 08:38:33;;;;;;;3.92;0.77;;;20.20;37.60;;;;;;4825501;29;20097;-69
2021/01/18 08:41:09;;;;;;;2.35;0.70;;;20.20;37.60;;;;;;4832861;29;20057;-70
2021/01/18 08:43:51;;;;;;;3.65;0.88;;;20.20;37.60;;;;;;4797037;29;20046;-70
2021/01/18 08:46:32;;;;;;;2.15;0.65;;;20.10;37.70;;;;;;4817333;29;20030;-69
2021/01/18 08:49:19;;;;;;;2.85;0.60;;;20.20;37.70;;;;;;4824135;29;20041;-70
2021/01/18 08:51:46;;;;;;;1.90;0.90;;;20.20;37.70;;;;;;4819386;29;20038;-70
2021/01/18 08:54:11;;;;;;;2.17;0.90;;;20.10;37.70;;;;;;4806037;29;20045;-72
2021/01/18 08:56:39;;;;;;;3.30;1.08;;;20.20;37.70;;;;;;4795791;29;20491;-71
2021/01/18 08:59:14;;;;;;;1.27;0.77;;;20.20;37.70;;;;;;4800025;29;20029;-70
2021/01/18 09:01:40;;;;;;;6.65;0.80;;;20.20;37.60;;;;;;4815582;29;20052;-73
2021/01/18 09:04:05;;;;;;;4.53;0.80;;;20.20;37.50;;;;;;4824907;29;20572;-77
2021/01/18 09:06:31;;;;;;;2.58;1.02;;;20.20;37.50;;;;;;4830908;29;20042;-74
2021/01/18 09:09:07;;;;;;;3.38;1.27;;;20.20;37.20;;;;;;4806742;29;20123;-73
2021/01/18 09:11:33;;;;;;;;;;;20.20;37.20;;;;;;4822750;29;20058;-78
2021/01/18 09:13:58;;;;;;;2.53;0.80;;;20.10;37.10;;;;;;4807028;29;19917;-74
2021/01/18 09:16:24;;;;;;;3.50;1.05;;;20.10;37.40;;;;;;4805997;29;20035;-74
2021/01/18 09:18:49;;;;;;;1.75;0.80;;;20.10;37.80;;;;;;4822290;29;20118;-74
2021/01/18 09:21:16;;;;;;;4.85;0.70;;;20.10;37.20;;;;;;4827552;29;20032;-74
2021/01/18 09:23:42;;;;;;;1.88;0.47;;;20.10;37.10;;;;;;4794431;29;20048;-74
2021/01/18 09:26:12;;;;;;;2.47;0.80;;;20.10;37.20;;;;;;4780069;29;20035;-74
2021/01/18 09:28:50;;;;;;;1.75;0.80;;;20.20;37.20;;;;;;4788451;29;20027;-74
2021/01/18 09:31:16;;;;;;;3.30;0.70;;;20.20;37.10;;;;;;4793644;29;20046;-74
2021/01/18 09:33:42;;;;;;;5.80;1.05;;;20.20;37.10;;;;;;4827478;29;20083;-74
2021/01/18 09:36:14;;;;;;;1.02;0.90;;;20.10;37.10;;;;;;4789122;29;20038;-74
2021/01/18 09:38:41;;;;;;;2.78;1.00;;;20.20;37.10;;;;;;4785755;29;20077;-74
2021/01/18 09:41:06;;;;;;;0.98;0.80;;;20.20;37.20;;;;;;4821880;29;20095;-75
2021/01/18 09:43:32;;;;;;;0.68;0.60;;;20.20;37.20;;;;;;4805600;29;20034;-75
2021/01/18 09:45:58;;;;;;;2.42;0.85;;;20.20;37.30;;;;;;4806035;29;20040;-75
2021/01/18 09:48:24;;;;;;;1.25;0.90;;;20.20;37.50;;;;;;4834901;29;20414;-74
2021/01/18 09:50:56;;;;;;;2.60;1.00;;;20.20;37.20;;;;;;4822962;29;20045;-75
2021/01/18 09:53:22;;;;;;;4.22;0.98;;;20.20;37.00;;;;;;4792818;29;20055;-75
2021/01/18 09:55:48;;;;;;;3.00;1.15;;;20.20;37.00;;;;;;4805382;29;20053;-75
2021/01/18 09:58:39;;;;;;;1.17;1.05;;;20.10;36.90;;;;;;4810219;29;20075;-74
2021/01/18 10:01:25;;;;;;;1.85;0.98;;;20.10;36.90;;;;;;4829983;29;20026;-76
2021/01/18 10:03:55;;;;;;;1.75;0.98;;;20.10;36.90;;;;;;4809555;29;20095;-76
2021/01/18 10:06:23;;;;;;;2.50;0.68;;;20.10;36.90;;;;;;4812000;29;20037;-77
2021/01/18 10:08:49;;;;;;;2.55;0.85;;;20.10;37.10;;;;;;4814647;29;20042;-75
2021/01/18 10:11:26;;;;;;;2.65;1.00;;;20.10;37.00;;;;;;4796559;29;20060;-75
2021/01/18 10:14:02;;;;;;;0.45;0.38;;;20.20;36.90;;;;;;4813950;29;20121;-75
2021/01/18 10:16:27;;;;;;;2.75;0.65;;;20.20;37.00;;;;;;4800150;29;20072;-74
2021/01/18 10:18:53;;;;;;;1.20;0.65;;;20.20;37.10;;;;;;4825358;29;20073;-74
2021/01/18 10:21:18;;;;;;;3.13;1.02;;;20.20;37.60;;;;;;4824402;29;20144;-75
2021/01/18 10:23:47;;;;;;;3.10;1.08;;;20.20;37.10;;;;;;4825518;29;20042;-75
2021/01/18 10:26:20;;;;;;;2.15;0.70;;;20.20;37.10;;;;;;4824601;29;20376;-74
2021/01/18 10:28:50;;;;;;;0.98;0.85;;;20.20;37.10;;;;;;4823814;29;20042;-74
2021/01/18 10:31:19;;;;;;;2.13;0.47;;;20.20;37.10;;;;;;4809680;29;20104;-74
2021/01/18 10:33:45;;;;;;;1.77;0.70;;;20.20;37.20;;;;;;4793924;29;20042;-74
2021/01/18 10:36:15;;;;;;;1.77;0.80;;;20.20;37.20;;;;;;4811352;29;20038;-74
2021/01/18 10:38:40;;;;;;;3.92;1.00;;;20.20;37.20;;;;;;4813004;29;20061;-74
2021/01/18 10:41:08;;;;;;;1.55;0.75;;;20.30;37.20;;;;;;4811350;29;20125;-74
2021/01/18 10:43:33;;;;;;;2.08;0.63;;;20.30;37.30;;;;;;4786441;29;20039;-74
2021/01/18 10:46:00;;;;;;;1.63;0.88;;;20.30;37.20;;;;;;4813612;29;20056;-74
2021/01/18 10:48:32;;;;;;;3.28;0.68;;;20.30;37.40;;;;;;4824688;29;20042;-73
2021/01/18 10:51:02;;;;;;;1.73;0.68;;;20.30;37.20;;;;;;4794932;29;20026;-79
2021/01/18 10:53:29;;;;;;;2.53;0.60;;;20.30;37.80;;;;;;4820886;29;20038;-76
2021/01/18 10:56:14;;;;;;;1.42;0.80;;;20.30;37.20;;;;;;4808364;29;20039;-75
2021/01/18 10:58:40;;;;;;;1.70;0.80;;;20.30;37.20;;;;;;4822040;29;20030;-76
2021/01/18 11:01:13;;;;;;;9.32;3.60;;;20.30;37.10;;;;;;4808707;29;20295;-75
2021/01/18 11:03:40;;;;;;;9.10;3.22;;;20.30;37.20;;;;;;4793904;29;20113;-78
2021/01/18 11:06:24;;;;;;;0.88;0.75;;;20.30;37.10;;;;;;4777423;29;20059;-75
2021/01/18 11:08:52;;;;;;;1.98;1.20;;;20.30;37.20;;;;;;4809667;29;20044;-75
2021/01/18 11:11:23;;;;;;;2.58;1.05;;;20.30;37.10;;;;;;4821080;29;20106;-74
2021/01/18 11:13:58;;;;;;;6.72;1.05;;;20.30;37.10;;;;;;4801590;29;20515;-75
2021/01/18 11:16:24;;;;;;;0.70;0.45;;;20.20;37.10;;;;;;4794795;29;20466;-74
2021/01/18 11:18:49;;;;;;;2.15;0.85;;;20.20;37.20;;;;;;4808096;29;20117;-76
2021/01/18 11:21:24;;;;;;;0.80;0.80;;;20.20;37.20;;;;;;4808385;29;20099;-75
2021/01/18 11:23:50;;;;;;;5.83;1.27;;;20.30;37.30;;;;;;4816078;29;20066;-75
2021/01/18 11:26:15;;;;;;;2.20;0.90;;;20.30;37.30;;;;;;4824262;29;20059;-75
2021/01/18 11:28:41;;;;;;;1.52;0.93;;;20.30;37.90;;;;;;4816352;29;20035;-76
2021/01/18 11:31:07;;;;;;;1.35;0.73;;;20.30;37.20;;;;;;4814394;29;20498;-74
2021/01/18 11:33:33;;;;;;;4.72;1.15;;;20.30;37.20;;;;;;4815071;29;20033;-76
2021/01/18 11:36:00;;;;;;;3.33;1.15;;;20.20;37.20;;;;;;4807905;29;20046;-75
2021/01/18 11:38:25;;;;;;;2.65;0.82;;;20.30;37.30;;;;;;4810182;29;20037;-74
2021/01/18 11:40:51;;;;;;;3.03;1.20;;;20.30;37.20;;;;;;4809986;29;20035;-74
2021/01/18 11:43:17;;;;;;;5.80;1.20;;;20.30;37.30;;;;;;4796425;29;20061;-75
2021/01/18 11:45:42;;;;;;;1.35;0.95;;;20.30;37.30;;;;;;4807708;29;20054;-75
2021/01/18 11:48:08;;;;;;;7.65;1.10;;;20.20;37.30;;;;;;4805789;29;20124;-74
2021/01/18 11:50:34;;;;;;;2.13;1.00;;;20.20;37.30;;;;;;4823545;29;20080;-75
2021/01/18 11:52:59;;;;;;;3.55;1.30;;;20.30;37.50;;;;;;4818720;29;20034;-75
2021/01/18 11:58:47;;;;;;;6.45;1.38;;;20.30;37.50;;;;;;4818478;29;20042;-74
2021/01/18 12:01:12;;;;;;;3.28;0.95;;;20.20;37.50;;;;;;4806718;29;20031;-75
2021/01/18 12:03:38;;;;;;;2.08;1.00;;;20.20;37.60;;;;;;4823449;29;20030;-74
2021/01/18 12:06:23;;;;;;;3.08;1.35;;;20.20;37.70;;;;;;4826353;29;20045;-75
2021/01/18 12:08:49;;;;;;;3.70;1.00;;;20.10;37.70;;;;;;4826878;29;20053;-75
2021/01/18 12:11:15;;;;;;;6.80;1.55;;;20.10;37.70;;;;;;4814557;29;20121;-74
2021/01/18 12:13:40;;;;;;;7.50;1.02;;;20.10;37.90;;;;;;4806285;29;20114;-74
2021/01/18 12:16:06;;;;;;;5.18;1.52;;;20.00;37.80;;;;;;4809277;29;20138;-74
2021/01/18 12:18:31;;;;;;;6.13;1.05;;;20.00;37.70;;;;;;4803791;29;20047;-74
2021/01/18 12:20:57;;;;;;;1.95;0.88;;;20.00;37.80;;;;;;4805191;29;20038;-75
2021/01/18 12:23:22;;;;;;;1.85;0.98;;;20.10;37.80;;;;;;4804289;29;20027;-74
2021/01/18 12:26:00;;;;;;;4.22;0.75;;;20.10;37.70;;;;;;4810423;29;20058;-74
2021/01/18 12:28:26;;;;;;;2.63;1.15;;;20.10;37.70;;;;;;4804861;29;20031;-73
2021/01/18 12:30:51;;;;;;;3.00;1.25;;;20.10;37.70;;;;;;4809181;29;20647;-73
2021/01/18 12:33:17;;;;;;;8.02;1.40;;;20.10;37.80;;;;;;4807006;29;20576;-74
2021/01/18 12:35:42;;;;;;;2.30;0.90;;;20.10;38.00;;;;;;4801076;29;20114;-75
2021/01/18 12:38:08;;;;;;;0.60;0.50;;;20.10;37.80;;;;;;4805655;29;20043;-74
2021/01/18 12:40:33;;;;;;;2.20;1.17;;;20.10;37.80;;;;;;4789740;29;20042;-74
2021/01/18 12:43:49;;;;;;;3.42;1.08;;;20.10;37.80;;;;;;4793508;29;20452;-75
2021/01/18 12:46:18;;;;;;;3.40;1.27;;;20.10;37.90;;;;;;4804947;29;20022;-75
2021/01/18 12:48:44;;;;;;;0.52;0.52;;;20.10;38.00;;;;;;4788221;29;20076;-74
2021/01/18 12:51:14;;;;;;;3.85;1.23;;;20.10;38.00;;;;;;4772803;29;20067;-75
2021/01/18 12:53:43;;;;;;;3.85;1.27;;;20.10;38.00;;;;;;4793012;29;20057;-75
2021/01/18 12:56:10;;;;;;;3.40;1.10;;;20.10;38.00;;;;;;4786597;29;20130;-75
2021/01/18 12:58:36;;;;;;;3.78;1.58;;;20.10;37.90;;;;;;4789354;29;20183;-75
2021/01/18 13:01:01;;;;;;;3.40;1.25;;;20.10;38.00;;;;;;4805187;29;20042;-76
2021/01/18 13:03:27;;;;;;;4.65;1.50;;;20.00;37.90;;;;;;4804264;29;20030;-75
2021/01/18 13:05:53;;;;;;;3.75;1.23;;;20.00;38.00;;;;;;4787493;29;20063;-75
2021/01/18 13:08:18;;;;;;;2.42;1.23;;;20.10;38.00;;;;;;4804248;29;20111;-75
2021/01/18 13:10:44;;;;;;;7.45;1.38;;;20.00;37.90;;;;;;4791768;29;20064;-74
2021/01/18 13:13:09;;;;;;;2.97;1.10;;;20.00;37.80;;;;;;4822488;29;20125;-75
2021/01/18 13:15:35;;;;;;;6.63;1.60;;;19.90;37.90;;;;;;4820801;29;20034;-76